Terminal Aerodrome Forecast
Issued by NWS El Paso, TX

Home | Current Version | Previous Version | Text Only | Print | Product List | Glossary On
Versions: 1 2 3 4 5 6 7 8 9 10 11 12 13
016
FTUS44 KEPZ 271138
TAFELP
TAF
KELP 271138Z 2712/2812 26008KT P6SM BKN250 WS010/29030KT
     FM271500 26015G25KT P6SM BKN250
     FM271900 27028G40KT 5SM BLDU BKN200
     FM280300 28020G30KT P6SM BKN200=

USA.gov is the U.S. government's official web portal to all federal, state and local government web resources and services.